Home > Products > Valid Products > TAF

000
FTUS44 KBRO 231133 CCA
TAFMFE
TAF COR
KMFE 231133Z 2312/2412 11009KT 6SM BR VCSH FEW006 BKN028
     FM231500 15015G21KT P6SM SCT020 BKN040
     FM232100 14012KT P6SM VCSH SCT030 BKN040
      TEMPO 2403/2406 P6SM -SHRA BKN030
     FM240600 14010KT P6SM VCTS SCT015 BKN025CB PROB30 2406/2412
      VRB15G30KT 4SM TSRA BR BKN015CB=



000
FTUS44 KBRO 231120
TAFBRO
TAF
KBRO 231120Z 2312/2412 13008KT P6SM FEW035 SCT050
     FM231500 16015G21KT P6SM SCT020 BKN040
     FM232100 13012KT P6SM VCSH SCT030 BKN040
     FM240600 14010KT P6SM VCTS SCT015 BKN025CB PROB30 2406/2412
      VRB15G30KT 4SM TSRA BR BKN015CB=



000
FTUS44 KBRO 231120
TAFMFE
TAF
KMFE 231120Z 2312/2412 11008KT 6SM BR SCT030
     FM231500 15015G21KT P6SM SCT020 BKN040
     FM232100 14012KT P6SM VCSH SCT030 BKN040
      TEMPO 2403/2406 P6SM -SHRA BKN030
     FM240600 14010KT P6SM VCTS SCT015 BKN025CB PROB30 2406/2412
      VRB15G30KT 4SM TSRA BR BKN015CB=



000
FTUS44 KBRO 231120
TAFHRL
TAF
KHRL 231120Z 2312/2412 13006KT P6SM FEW030 SCT050
     FM231500 14015G21KT P6SM SCT020 BKN040
     FM232100 14012KT P6SM VCSH SCT030 BKN040
     FM240600 14010KT P6SM VCTS SCT015 BKN025CB PROB30 2406/2412
      VRB15G30KT 4SM TSRA BR BKN015CB=



000
FTUS44 KBRO 231006 AAB
TAFMFE
TAF AMD
KMFE 231006Z 2310/2406 12005KT P6SM SCT007 OVC023
     FM231500 15015G21KT P6SM SCT020 BKN040
     FM231800 14018G24KT P6SM SCT030 BKN050
     FM232100 14012KT P6SM VCSH SCT050 BKN100 PROB30 2400/2406 P6SM
      -TSRA SCT030 OVC050CB=



000
FTUS44 KBRO 230914 AAA
TAFMFE
TAF AMD
KMFE 230914Z 2309/2406 12007KT P6SM BKN006 OVC022
     FM231500 15015G21KT P6SM SCT020 BKN040
     FM231800 14018G24KT P6SM SCT030 BKN050
     FM232100 14012KT P6SM VCSH SCT050 BKN100 PROB30 2400/2406 P6SM
      -TSRA SCT030 OVC050CB=



000
FTUS44 KBRO 230914 AAA
TAFMFE
TAF AMD
KMFE 230914Z 2309/2406 12007KT P6SM BKN006 OVC022
     FM231500 15015G21KT P6SM SCT020 BKN040
     FM231800 14018G24KT P6SM SCT030 BKN050
     FM232100 14012KT P6SM VCSH SCT050 BKN100 PROB30 2400/2406 P6SM
      -TSRA SCT030 OVC050CB=



000
FTUS44 KBRO 230520
TAFHRL
TAF
KHRL 230520Z 2306/2406 13008KT P6SM SCT050 BKN100
     FM231500 14015G21KT P6SM SCT020 BKN040
     FM231800 16018G24KT P6SM SCT030 BKN050
     FM232100 14012KT P6SM VCSH SCT050 BKN100 PROB30 2400/2406 P6SM
      -TSRA SCT030 OVC050CB=



000
FTUS44 KBRO 230520
TAFBRO
TAF
KBRO 230520Z 2306/2406 13009KT P6SM SCT050 BKN100
     FM231500 16015G21KT P6SM SCT020 BKN040
     FM231800 17018G24KT P6SM SCT030 BKN050
     FM232100 13012KT P6SM VCSH SCT050 BKN100 PROB30 2400/2406 P6SM
      -TSRA SCT030 OVC050CB=



000
FTUS44 KBRO 230520
TAFMFE
TAF
KMFE 230520Z 2306/2406 15008KT P6SM SCT025 BKN100
     FM231500 15015G21KT P6SM SCT020 BKN040
     FM231800 14018G24KT P6SM SCT030 BKN050
     FM232100 14012KT P6SM VCSH SCT050 BKN100 PROB30 2400/2406 P6SM
      -TSRA SCT030 OVC050CB=



000
FTUS44 KBRO 222341 CCA
TAFBRO
TAF COR
KBRO 222341Z 2300/2324 14012KT P6SM FEW020 SCT250
     FM230700 13009KT P6SM BKN020
     FM231400 14015G21KT P6SM VCSH SCT030 BKN100
     FM231800 15018G24KT P6SM SCT040 BKN100=



000
FTUS44 KBRO 222341 CCA
TAFBRO
TAF COR
KBRO 222341Z 2300/2324 14012KT P6SM FEW020 SCT250
     FM230700 13009KT P6SM BKN020
     FM231400 14015G21KT P6SM VCSH SCT030 BKN100
     FM231800 15018G24KT P6SM SCT040 BKN100=



000
FTUS44 KBRO 222340
TAFMFE
TAF
KMFE 222340Z 2300/2324 14009KT P6SM FEW020 SCT250
     FM230900 13009KT P6SM BKN020
     FM231400 14014G20KT P6SM SCT035 BKN100
     FM231800 15017G23KT P6SM SCT040 BKN100=



000
FTUS44 KBRO 222340
TAFBRO
TAF
KBRO 222340Z 2300/2324 14012KT P6SM FEW020 SCT025
     FM230700 13009KT P6SM BKN020
     FM231400 14015G21KT P6SM VCSH SCT030 BKN100
     FM231800 15018G24KT P6SM SCT040 BKN100=



000
FTUS44 KBRO 222340
TAFHRL
TAF
KHRL 222340Z 2300/2324 14012KT P6SM FEW020 SCT250
     FM230800 13009KT P6SM BKN020
     FM231400 14015G21KT P6SM VCSH SCT030 BKN100
     FM231800 15018G24KT P6SM SCT040 BKN100=



000
FTUS44 KBRO 222340
TAFHRL
TAF
KHRL 222340Z 2300/2324 14012KT P6SM FEW020 SCT250
     FM230800 13009KT P6SM BKN020
     FM231400 14015G21KT P6SM VCSH SCT030 BKN100
     FM231800 15018G24KT P6SM SCT040 BKN100=



000
FTUS44 KBRO 222340
TAFMFE
TAF
KMFE 222340Z 2300/2324 14009KT P6SM FEW020 SCT250
     FM230900 13009KT P6SM BKN020
     FM231400 14014G20KT P6SM SCT035 BKN100
     FM231800 15017G23KT P6SM SCT040 BKN100=



000
FTUS44 KBRO 222340
TAFBRO
TAF
KBRO 222340Z 2300/2324 14012KT P6SM FEW020 SCT025
     FM230700 13009KT P6SM BKN020
     FM231400 14015G21KT P6SM VCSH SCT030 BKN100
     FM231800 15018G24KT P6SM SCT040 BKN100=



000
FTUS44 KBRO 221723
TAFBRO
TAF
KBRO 221723Z 2218/2318 12015G19KT P6SM BKN022 BKN028
     FM222100 13012KT P6SM OVC050
     FM230600 13009KT P6SM OVC015
     FM230900 14008KT P6SM OVC050=



000
FTUS44 KBRO 221723
TAFBRO
TAF
KBRO 221723Z 2218/2318 12015G19KT P6SM BKN022 BKN028
     FM222100 13012KT P6SM OVC050
     FM230600 13009KT P6SM OVC015
     FM230900 14008KT P6SM OVC050=



000
FTUS44 KBRO 221723
TAFMFE
TAF
KMFE 221723Z 2218/2318 VRB05KT P6SM FEW029 SCT035
     FM222000 14010G16KT P6SM SCT025 OVC040
     FM230000 13011KT P6SM BKN250
     FM230600 13010KT P6SM BKN025 OVC050=



000
FTUS44 KBRO 221723
TAFHRL
TAF
KHRL 221723Z 2218/2318 12009KT P6SM FEW035
     FM222100 15013KT P6SM OVC100
     FM230000 13014KT P6SM OVC250
     FM230300 13008KT P6SM BKN250=



000
FTUS44 KBRO 221723
TAFMFE
TAF
KMFE 221723Z 2218/2318 VRB05KT P6SM FEW029 SCT035
     FM222000 14010G16KT P6SM SCT025 OVC040
     FM230000 13011KT P6SM BKN250
     FM230600 13010KT P6SM BKN025 OVC050=



000
FTUS44 KBRO 221723
TAFHRL
TAF
KHRL 221723Z 2218/2318 12009KT P6SM FEW035
     FM222100 15013KT P6SM OVC100
     FM230000 13014KT P6SM OVC250
     FM230300 13008KT P6SM BKN250=



000
FTUS44 KBRO 221715 AAE
TAFMFE
TAF AMD
KMFE 221715Z 2217/2312 VRB05KT P6SM FEW029 SCT035
     FM222000 14010G16KT P6SM SCT025 OVC040
     FM230000 13011KT P6SM BKN250
     FM230600 13010KT P6SM BKN025 OVC050=



000
FTUS44 KBRO 221715 AAG
TAFBRO
TAF AMD
KBRO 221715Z 2217/2312 12015G19KT P6SM BKN022 BKN028
     FM222100 13012KT P6SM OVC050
     FM230600 13009KT P6SM OVC015
     FM230900 14008KT P6SM OVC050=



000
FTUS44 KBRO 221715 AAG
TAFBRO
TAF AMD
KBRO 221715Z 2217/2312 12015G19KT P6SM BKN022 BKN028
     FM222100 13012KT P6SM OVC050
     FM230600 13009KT P6SM OVC015
     FM230900 14008KT P6SM OVC050=



000
FTUS44 KBRO 221715 AAF
TAFHRL
TAF AMD
KHRL 221715Z 2217/2312 12009KT P6SM FEW035
     FM222100 15013KT P6SM OVC100
     FM230000 13014KT P6SM OVC250
     FM230300 13008KT P6SM BKN250=



000
FTUS44 KBRO 221715 AAF
TAFHRL
TAF AMD
KHRL 221715Z 2217/2312 12009KT P6SM FEW035
     FM222100 15013KT P6SM OVC100
     FM230000 13014KT P6SM OVC250
     FM230300 13008KT P6SM BKN250=



000
FTUS44 KBRO 221715 AAE
TAFMFE
TAF AMD
KMFE 221715Z 2217/2312 VRB05KT P6SM FEW029 SCT035
     FM222000 14010G16KT P6SM SCT025 OVC040
     FM230000 13011KT P6SM BKN250
     FM230600 13010KT P6SM BKN025 OVC050=



000
FTUS44 KBRO 221714 AAD
TAFMFE
TAF AMD
KMFE 221714Z 2217/2312 12010KT P6SM BKN013
     FM222000 14010G16KT P6SM SCT025 OVC040
     FM230000 13011KT P6SM BKN250
     FM230600 13010KT P6SM BKN025 OVC050=



000
FTUS44 KBRO 221714 AAD
TAFMFE
TAF AMD
KMFE 221714Z 2217/2312 12010KT P6SM BKN013
     FM222000 14010G16KT P6SM SCT025 OVC040
     FM230000 13011KT P6SM BKN250
     FM230600 13010KT P6SM BKN025 OVC050=



000
FTUS44 KBRO 221711 AAD
TAFBRO
TAF AMD
KBRO 221711Z 2217/2312 13012G19KT P6SM SCT023
     FM222100 13012KT P6SM OVC050
     FM230600 13009KT P6SM OVC015
     FM230900 14008KT P6SM OVC050=



000
FTUS44 KBRO 221711 AAD
TAFBRO
TAF AMD
KBRO 221711Z 2217/2312 13012G19KT P6SM SCT023
     FM222100 13012KT P6SM OVC050
     FM230600 13009KT P6SM OVC015
     FM230900 14008KT P6SM OVC050=



000
FTUS44 KBRO 221512 AAC
TAFMFE
TAF AMD
KMFE 221512Z 2215/2312 12010KT P6SM BKN013
     FM221800 13013KT P6SM SCT025 OVC040
     FM230000 12010KT P6SM VCSH BKN050 OVC100 PROB30 2300/2306 P6SM
      -SHRA SCT025 OVC050
     FM230600 13010KT P6SM BKN025 OVC050=



000
FTUS44 KBRO 221440 AAE
TAFHRL
TAF AMD
KHRL 221440Z 2215/2312 14010KT P6SM SCT005
     FM221800 15013KT P6SM VCTS SCT025 OVC040CB
      TEMPO 2218/2221 6SM TSRA BKN025CB
     FM230000 11010KT P6SM VCSH BKN050 OVC100 PROB30 2300/2306 P6SM
      -SHRA SCT025 OVC050
     FM230600 14010KT P6SM BKN025 OVC050=



000
FTUS44 KBRO 221419 AAD
TAFHRL
TAF AMD
KHRL 221419Z 2214/2312 15008KT 5SM BR OVC003
     FM221800 15013KT P6SM VCTS SCT025 OVC040CB
      TEMPO 2218/2221 6SM TSRA BKN025CB
     FM230000 11010KT P6SM VCSH BKN050 OVC100 PROB30 2300/2306 P6SM
      -SHRA SCT025 OVC050
     FM230600 14010KT P6SM BKN025 OVC050=



000
FTUS44 KBRO 221419 AAC
TAFBRO
TAF AMD
KBRO 221419Z 2214/2312 15006KT 6SM BR SCT005
     FM221800 15013KT P6SM VCTS SCT025 OVC040CB
      TEMPO 2218/2221 6SM TSRA BKN025CB
     FM230000 13010KT P6SM VCSH BKN050 OVC100 PROB30 2300/2306 P6SM
      -SHRA SCT025 OVC050
     FM230600 14010KT P6SM BKN025 OVC050=



000
FTUS44 KBRO 221336 AAB
TAFMFE
TAF AMD
KMFE 221336Z 2214/2312 13006KT P6SM SKC
     FM221800 13013KT P6SM VCTS SCT025 OVC040CB
      TEMPO 2218/2221 6SM TSRA BKN025CB
     FM230000 12010KT P6SM VCSH BKN050 OVC100 PROB30 2300/2306 P6SM
      -SHRA SCT025 OVC050
     FM230600 13010KT P6SM BKN025 OVC050=



000
FTUS44 KBRO 221336 AAC
TAFHRL
TAF AMD
KHRL 221336Z 2214/2312 15008KT 1 1/2SM BR OVC002
     FM221500 14010KT P6SM BKN035
     FM221800 15013KT P6SM VCTS SCT025 OVC040CB
      TEMPO 2218/2221 6SM TSRA BKN025CB
     FM230000 11010KT P6SM VCSH BKN050 OVC100 PROB30 2300/2306 P6SM
      -SHRA SCT025 OVC050
     FM230600 14010KT P6SM BKN025 OVC050=



000
FTUS44 KBRO 221335 AAB
TAFBRO
TAF AMD
KBRO 221335Z 2214/2312 16005KT 3SM BR OVC003
     FM221800 15013KT P6SM VCTS SCT025 OVC040CB
      TEMPO 2218/2221 6SM TSRA BKN025CB
     FM230000 13010KT P6SM VCSH BKN050 OVC100 PROB30 2300/2306 P6SM
      -SHRA SCT025 OVC050
     FM230600 14010KT P6SM BKN025 OVC050=



000
FTUS44 KBRO 221231 AAA
TAFMFE
TAF AMD
KMFE 221231Z 2213/2312 14006KT 5SM BR SKC
     FM221500 13010KT P6SM VCSH BKN035
     FM221800 13013KT P6SM VCTS SCT025 OVC040CB
      TEMPO 2218/2221 6SM TSRA BKN025CB
     FM230000 12010KT P6SM VCSH BKN050 OVC100 PROB30 2300/2306 P6SM
      -SHRA SCT025 OVC050
     FM230600 13010KT P6SM BKN025 OVC050=



000
FTUS44 KBRO 221231 AAA
TAFMFE
TAF AMD
KMFE 221231Z 2213/2312 14006KT 5SM BR SKC
     FM221500 13010KT P6SM VCSH BKN035
     FM221800 13013KT P6SM VCTS SCT025 OVC040CB
      TEMPO 2218/2221 6SM TSRA BKN025CB
     FM230000 12010KT P6SM VCSH BKN050 OVC100 PROB30 2300/2306 P6SM
      -SHRA SCT025 OVC050
     FM230600 13010KT P6SM BKN025 OVC050=



000
FTUS44 KBRO 221230 AAC
TAFBRO
TAF AMD
KBRO 221230Z 2213/2312 19003KT 1/4SM FG OVC004
     FM221500 14010KT P6SM VCTS BKN035CB
     FM221800 15013KT P6SM VCTS SCT025 OVC040CB
      TEMPO 2218/2221 6SM TSRA BKN025CB
     FM230000 13010KT P6SM VCSH BKN050 OVC100 PROB30 2300/2306 P6SM
      -SHRA SCT025 OVC050
     FM230600 14010KT P6SM BKN025 OVC050=



000
FTUS44 KBRO 221230 AAC
TAFBRO
TAF AMD
KBRO 221230Z 2213/2312 19003KT 1/4SM FG OVC004
     FM221500 14010KT P6SM VCTS BKN035CB
     FM221800 15013KT P6SM VCTS SCT025 OVC040CB
      TEMPO 2218/2221 6SM TSRA BKN025CB
     FM230000 13010KT P6SM VCSH BKN050 OVC100 PROB30 2300/2306 P6SM
      -SHRA SCT025 OVC050
     FM230600 14010KT P6SM BKN025 OVC050=



000
FTUS44 KBRO 221230 AAB
TAFHRL
TAF AMD
KHRL 221230Z 2213/2312 13004KT 1/4SM FG VV002
     FM221500 14010KT P6SM VCSH BKN035
     FM221800 15013KT P6SM VCTS SCT025 OVC040CB
      TEMPO 2218/2221 6SM TSRA BKN025CB
     FM230000 11010KT P6SM VCSH BKN050 OVC100 PROB30 2300/2306 P6SM
      -SHRA SCT025 OVC050
     FM230600 14010KT P6SM BKN025 OVC050=



000
FTUS44 KBRO 221230 AAB
TAFHRL
TAF AMD
KHRL 221230Z 2213/2312 13004KT 1/4SM FG VV002
     FM221500 14010KT P6SM VCSH BKN035
     FM221800 15013KT P6SM VCTS SCT025 OVC040CB
      TEMPO 2218/2221 6SM TSRA BKN025CB
     FM230000 11010KT P6SM VCSH BKN050 OVC100 PROB30 2300/2306 P6SM
      -SHRA SCT025 OVC050
     FM230600 14010KT P6SM BKN025 OVC050=



000
FTUS44 KBRO 221152 AAB
TAFBRO
TAF AMD
KBRO 221152Z 2212/2312 00000KT 1/2SM FG VCTS BKN006 BKN010 BKN015CB
     FM221500 14010KT P6SM VCTS BKN035CB
     FM221800 15013KT P6SM VCTS SCT025 OVC040CB
      TEMPO 2218/2221 6SM TSRA BKN025CB
     FM230000 13010KT P6SM VCSH BKN050 OVC100 PROB30 2300/2306 P6SM
      -SHRA SCT025 OVC050
     FM230600 14010KT P6SM BKN025 OVC050=



000
FTUS44 KBRO 221152 AAB
TAFBRO
TAF AMD
KBRO 221152Z 2212/2312 00000KT 1/2SM FG VCTS BKN006 BKN010 BKN015CB
     FM221500 14010KT P6SM VCTS BKN035CB
     FM221800 15013KT P6SM VCTS SCT025 OVC040CB
      TEMPO 2218/2221 6SM TSRA BKN025CB
     FM230000 13010KT P6SM VCSH BKN050 OVC100 PROB30 2300/2306 P6SM
      -SHRA SCT025 OVC050
     FM230600 14010KT P6SM BKN025 OVC050=



000
FTUS44 KBRO 221130 AAA
TAFHRL
TAF AMD
KHRL 221130Z 2212/2312 13004KT 1/2SM FG FEW003 BKN009
     FM221500 14010KT P6SM VCSH BKN035
     FM221800 15013KT P6SM VCTS SCT025 OVC040CB
      TEMPO 2218/2221 6SM TSRA BKN025CB
     FM230000 11010KT P6SM VCSH BKN050 OVC100 PROB30 2300/2306 P6SM
      -SHRA SCT025 OVC050
     FM230600 14010KT P6SM BKN025 OVC050=



000
FTUS44 KBRO 221130 AAA
TAFHRL
TAF AMD
KHRL 221130Z 2212/2312 13004KT 1/2SM FG FEW003 BKN009
     FM221500 14010KT P6SM VCSH BKN035
     FM221800 15013KT P6SM VCTS SCT025 OVC040CB
      TEMPO 2218/2221 6SM TSRA BKN025CB
     FM230000 11010KT P6SM VCSH BKN050 OVC100 PROB30 2300/2306 P6SM
      -SHRA SCT025 OVC050
     FM230600 14010KT P6SM BKN025 OVC050=



000
FTUS44 KBRO 221122 AAA
TAFBRO
TAF AMD
KBRO 221122Z 2211/2312 27004KT 4SM BR VCTS SCT006 BKN010 BKN018CB
     FM221500 14010KT P6SM VCTS BKN035CB
     FM221800 15013KT P6SM VCTS SCT025 OVC040CB
      TEMPO 2218/2221 6SM TSRA BKN025CB
     FM230000 13010KT P6SM VCSH BKN050 OVC100 PROB30 2300/2306 P6SM
      -SHRA SCT025 OVC050
     FM230600 14010KT P6SM BKN025 OVC050=



000
FTUS44 KBRO 221122 AAA
TAFBRO
TAF AMD
KBRO 221122Z 2211/2312 27004KT 4SM BR VCTS SCT006 BKN010 BKN018CB
     FM221500 14010KT P6SM VCTS BKN035CB
     FM221800 15013KT P6SM VCTS SCT025 OVC040CB
      TEMPO 2218/2221 6SM TSRA BKN025CB
     FM230000 13010KT P6SM VCSH BKN050 OVC100 PROB30 2300/2306 P6SM
      -SHRA SCT025 OVC050
     FM230600 14010KT P6SM BKN025 OVC050=



000
FTUS44 KBRO 221120
TAFMFE
TAF
KMFE 221120Z 2212/2312 13006KT 6SM BR BKN050
     FM221500 13010KT P6SM VCSH BKN035
     FM221800 13013KT P6SM VCTS SCT025 OVC040CB
      TEMPO 2218/2221 6SM TSRA BKN025CB
     FM230000 12010KT P6SM VCSH BKN050 OVC100 PROB30 2300/2306 P6SM
      -SHRA SCT025 OVC050
     FM230600 13010KT P6SM BKN025 OVC050=



000
FTUS44 KBRO 221120
TAFHRL
TAF
KHRL 221120Z 2212/2312 00000KT 3SM BR BKN007 BKN014 OVC080
     FM221500 14010KT P6SM VCSH BKN035
     FM221800 15013KT P6SM VCTS SCT025 OVC040CB
      TEMPO 2218/2221 6SM TSRA BKN025CB
     FM230000 11010KT P6SM VCSH BKN050 OVC100 PROB30 2300/2306 P6SM
      -SHRA SCT025 OVC050
     FM230600 14010KT P6SM BKN025 OVC050=



000
FTUS44 KBRO 221120
TAFBRO
TAF
KBRO 221120Z 2212/2312 27004KT 4SM BR SCT006 BKN010 BKN018
     FM221500 14010KT P6SM VCSH BKN035
     FM221800 15013KT P6SM VCTS SCT025 OVC040CB
      TEMPO 2218/2221 6SM TSRA BKN025CB
     FM230000 13010KT P6SM VCSH BKN050 OVC100 PROB30 2300/2306 P6SM
      -SHRA SCT025 OVC050
     FM230600 14010KT P6SM BKN025 OVC050=



000
FTUS44 KBRO 221120
TAFHRL
TAF
KHRL 221120Z 2212/2312 00000KT 3SM BR BKN007 BKN014 OVC080
     FM221500 14010KT P6SM VCSH BKN035
     FM221800 15013KT P6SM VCTS SCT025 OVC040CB
      TEMPO 2218/2221 6SM TSRA BKN025CB
     FM230000 11010KT P6SM VCSH BKN050 OVC100 PROB30 2300/2306 P6SM
      -SHRA SCT025 OVC050
     FM230600 14010KT P6SM BKN025 OVC050=



000
FTUS44 KBRO 221120
TAFMFE
TAF
KMFE 221120Z 2212/2312 13006KT 6SM BR BKN050
     FM221500 13010KT P6SM VCSH BKN035
     FM221800 13013KT P6SM VCTS SCT025 OVC040CB
      TEMPO 2218/2221 6SM TSRA BKN025CB
     FM230000 12010KT P6SM VCSH BKN050 OVC100 PROB30 2300/2306 P6SM
      -SHRA SCT025 OVC050
     FM230600 13010KT P6SM BKN025 OVC050=



000
FTUS44 KBRO 221120
TAFBRO
TAF
KBRO 221120Z 2212/2312 27004KT 4SM BR SCT006 BKN010 BKN018
     FM221500 14010KT P6SM VCSH BKN035
     FM221800 15013KT P6SM VCTS SCT025 OVC040CB
      TEMPO 2218/2221 6SM TSRA BKN025CB
     FM230000 13010KT P6SM VCSH BKN050 OVC100 PROB30 2300/2306 P6SM
      -SHRA SCT025 OVC050
     FM230600 14010KT P6SM BKN025 OVC050=



000
FTUS44 KBRO 221030 AAF
TAFHRL
TAF AMD
KHRL 221030Z 2211/2306 00000KT 2SM BR BKN006 BKN016 OVC040
     FM221500 14010KT P6SM VCSH BKN035
     FM221800 15013KT P6SM VCTS SCT025 OVC040CB
     FM230000 11010KT P6SM VCSH BKN050 OVC100=



000
FTUS44 KBRO 221030 AAF
TAFHRL
TAF AMD
KHRL 221030Z 2211/2306 00000KT 2SM BR BKN006 BKN016 OVC040
     FM221500 14010KT P6SM VCSH BKN035
     FM221800 15013KT P6SM VCTS SCT025 OVC040CB
     FM230000 11010KT P6SM VCSH BKN050 OVC100=



000
FTUS44 KBRO 221021 AAE
TAFBRO
TAF AMD
KBRO 221021Z 2210/2306 26005KT 3SM BR SCT010 OVC015
     FM221500 14010KT P6SM VCSH BKN035
     FM221800 15013KT P6SM VCTS SCT025 OVC040CB
     FM230000 13010KT P6SM VCSH BKN050 OVC100=



000
FTUS44 KBRO 220929 AAD
TAFBRO
TAF AMD
KBRO 220929Z 2209/2306 00000KT 2SM BR SCT015
      TEMPO 2209/2211 3/4SM BR VV015
     FM221500 14010KT P6SM VCSH BKN035
     FM221800 15013KT P6SM VCTS SCT025 OVC040CB PROB30 2218/2224 6SM
      -TSRA BKN025CB
     FM230000 13010KT P6SM VCSH BKN050 OVC100=



000
FTUS44 KBRO 220918 AAC
TAFMFE
TAF AMD
KMFE 220918Z 2209/2306 00000KT 6SM BR FEW016 SCT024 SCT029
     FM221500 13010KT P6SM VCSH BKN035
     FM221800 13013KT P6SM VCTS SCT025 OVC040CB PROB30 2218/2224 6SM
      -TSRA BKN025CB
     FM230000 12010KT P6SM VCSH BKN050 OVC100=



000
FTUS44 KBRO 220839 AAE
TAFHRL
TAF AMD
KHRL 220839Z 2209/2306 00000KT 3/4SM BR VV014
     FM221500 14010KT P6SM VCSH BKN035
     FM221800 15013KT P6SM VCTS SCT025 OVC040CB PROB30 2218/2224 6SM
      -TSRA BKN025CB
     FM230000 11010KT P6SM VCSH BKN050 OVC100=



000
FTUS44 KBRO 220839 AAE
TAFHRL
TAF AMD
KHRL 220839Z 2209/2306 00000KT 3/4SM BR VV014
     FM221500 14010KT P6SM VCSH BKN035
     FM221800 15013KT P6SM VCTS SCT025 OVC040CB PROB30 2218/2224 6SM
      -TSRA BKN025CB
     FM230000 11010KT P6SM VCSH BKN050 OVC100=



000
FTUS44 KBRO 220812 AAD
TAFHRL
TAF AMD
KHRL 220812Z 2208/2306 00000KT 1 1/2SM BR SKC
     FM221500 14010KT P6SM VCSH BKN035
     FM221800 15013KT P6SM VCTS SCT025 OVC040CB PROB30 2218/2224 6SM
      -TSRA BKN025CB
     FM230000 11010KT P6SM VCSH BKN050 OVC100=



000
FTUS44 KBRO 220759 AAC
TAFBRO
TAF AMD
KBRO 220759Z 2208/2306 06003KT 5SM BR FEW070
     FM221500 14010KT P6SM VCSH BKN035
     FM221800 15013KT P6SM VCTS SCT025 OVC040CB PROB30 2218/2224 6SM
      -TSRA BKN025CB
     FM230000 13010KT P6SM VCSH BKN050 OVC100=



000
FTUS44 KBRO 220747 AAB
TAFMFE
TAF AMD
KMFE 220747Z 2208/2306 06005KT P6SM OVC013
     FM221500 13010KT P6SM VCSH BKN035
     FM221800 13013KT P6SM VCTS SCT025 OVC040CB PROB30 2218/2224 6SM
      -TSRA BKN025CB
     FM230000 12010KT P6SM VCSH BKN050 OVC100=



000
FTUS44 KBRO 220701 AAC
TAFHRL
TAF AMD
KHRL 220701Z 2207/2306 00000KT 5SM BR FEW014 SCT024
     FM221500 14010KT P6SM VCSH BKN035
     FM221800 15013KT P6SM VCTS SCT025 OVC040CB PROB30 2218/2224 6SM
      -TSRA BKN025CB
     FM230000 11010KT P6SM VCSH BKN050 OVC100=



000
FTUS44 KBRO 220701 AAC
TAFHRL
TAF AMD
KHRL 220701Z 2207/2306 00000KT 5SM BR FEW014 SCT024
     FM221500 14010KT P6SM VCSH BKN035
     FM221800 15013KT P6SM VCTS SCT025 OVC040CB PROB30 2218/2224 6SM
      -TSRA BKN025CB
     FM230000 11010KT P6SM VCSH BKN050 OVC100=



000
FTUS44 KBRO 220701 AAA
TAFMFE
TAF AMD
KMFE 220701Z 2207/2306 07007KT P6SM FEW026
     FM221500 13010KT P6SM VCSH BKN035
     FM221800 13013KT P6SM VCTS SCT025 OVC040CB PROB30 2218/2224 6SM
      -TSRA BKN025CB
     FM230000 12010KT P6SM VCSH BKN050 OVC100=



000
FTUS44 KBRO 220701 AAA
TAFMFE
TAF AMD
KMFE 220701Z 2207/2306 07007KT P6SM FEW026
     FM221500 13010KT P6SM VCSH BKN035
     FM221800 13013KT P6SM VCTS SCT025 OVC040CB PROB30 2218/2224 6SM
      -TSRA BKN025CB
     FM230000 12010KT P6SM VCSH BKN050 OVC100=



000
FTUS44 KBRO 220650 AAB
TAFHRL
TAF AMD
KHRL 220650Z 2207/2306 00000KT 6SM BR SCT014 SCT024
     FM221500 14010KT P6SM VCSH BKN035
     FM221800 15013KT P6SM VCTS SCT025 OVC040CB PROB30 2218/2224 6SM
      -TSRA BKN025CB
     FM230000 11010KT P6SM VCSH BKN050 OVC100=



000
FTUS44 KBRO 220650 AAB
TAFHRL
TAF AMD
KHRL 220650Z 2207/2306 00000KT 6SM BR SCT014 SCT024
     FM221500 14010KT P6SM VCSH BKN035
     FM221800 15013KT P6SM VCTS SCT025 OVC040CB PROB30 2218/2224 6SM
      -TSRA BKN025CB
     FM230000 11010KT P6SM VCSH BKN050 OVC100=



000
FTUS44 KBRO 220604 AAA
TAFHRL
TAF AMD
KHRL 220604Z 2206/2306 07004KT P6SM OVC015
     FM221500 14010KT P6SM VCSH BKN035
     FM221800 15013KT P6SM VCTS SCT025 OVC040CB PROB30 2218/2224 6SM
      -TSRA BKN025CB
     FM230000 11010KT P6SM VCSH BKN050 OVC100=



000
FTUS44 KBRO 220604 AAA
TAFHRL
TAF AMD
KHRL 220604Z 2206/2306 07004KT P6SM OVC015
     FM221500 14010KT P6SM VCSH BKN035
     FM221800 15013KT P6SM VCTS SCT025 OVC040CB PROB30 2218/2224 6SM
      -TSRA BKN025CB
     FM230000 11010KT P6SM VCSH BKN050 OVC100=



000
FTUS44 KBRO 220520
TAFHRL
TAF
KHRL 220520Z 2206/2306 09005KT 2SM BR FEW026 BKN250
     FM221500 14010KT P6SM VCSH BKN035
     FM221800 15013KT P6SM VCTS SCT025 OVC040CB PROB30 2218/2224 6SM
      -TSRA BKN025CB
     FM230000 11010KT P6SM VCSH BKN050 OVC100=



000
FTUS44 KBRO 220520
TAFHRL
TAF
KHRL 220520Z 2206/2306 09005KT 2SM BR FEW026 BKN250
     FM221500 14010KT P6SM VCSH BKN035
     FM221800 15013KT P6SM VCTS SCT025 OVC040CB PROB30 2218/2224 6SM
      -TSRA BKN025CB
     FM230000 11010KT P6SM VCSH BKN050 OVC100=



000
FTUS44 KBRO 220520
TAFMFE
TAF
KMFE 220520Z 2206/2306 09006KT P6SM FEW010 SCT014 BKN030
     FM221500 13010KT P6SM VCSH BKN035
     FM221800 13013KT P6SM VCTS SCT025 OVC040CB PROB30 2218/2224 6SM
      -TSRA BKN025CB
     FM230000 12010KT P6SM VCSH BKN050 OVC100=



000
FTUS44 KBRO 220520
TAFMFE
TAF
KMFE 220520Z 2206/2306 09006KT P6SM FEW010 SCT014 BKN030
     FM221500 13010KT P6SM VCSH BKN035
     FM221800 13013KT P6SM VCTS SCT025 OVC040CB PROB30 2218/2224 6SM
      -TSRA BKN025CB
     FM230000 12010KT P6SM VCSH BKN050 OVC100=



000
FTUS44 KBRO 220520
TAFBRO
TAF
KBRO 220520Z 2206/2306 14007KT P6SM BKN250
     FM221500 14010KT P6SM VCSH BKN035
     FM221800 15013KT P6SM VCTS SCT025 OVC040CB PROB30 2218/2224 6SM
      -TSRA BKN025CB
     FM230000 13010KT P6SM VCSH BKN050 OVC100=



000
FTUS44 KBRO 220520
TAFBRO
TAF
KBRO 220520Z 2206/2306 14007KT P6SM BKN250
     FM221500 14010KT P6SM VCSH BKN035
     FM221800 15013KT P6SM VCTS SCT025 OVC040CB PROB30 2218/2224 6SM
      -TSRA BKN025CB
     FM230000 13010KT P6SM VCSH BKN050 OVC100=



000
FTUS44 KBRO 212339
TAFMFE
TAF
KMFE 212339Z 2200/2224 VRB06KT P6SM VCSH BKN035 OVC250
     FM220900 12006KT P6SM VCTS BKN035CB
     FM221500 13010KT P6SM -SHRA BKN025 OVC040
     FM221800 14013KT P6SM BKN040 OVC250=



000
FTUS44 KBRO 212339
TAFBRO
TAF
KBRO 212339Z 2200/2224 VRB06KT P6SM VCSH BKN035 OVC250
     FM221000 12006KT P6SM VCTS BKN035CB
     FM221500 13010KT P6SM -RA BKN035
     FM221800 14013KT P6SM -SHRA BKN025 OVC040=



000
FTUS44 KBRO 212339
TAFHRL
TAF
KHRL 212339Z 2200/2224 VRB06KT P6SM VCSH BKN035 OVC250
     FM220900 12006KT P6SM VCTS BKN035CB
     FM221500 13010KT P6SM -RA BKN025
     FM221800 14013KT P6SM -SHRA BKN035 OVC050=



000
FTUS44 KBRO 211739
TAFBRO
TAF
KBRO 211739Z 2118/2218 10010KT P6SM VCTS BKN025CB
      TEMPO 2118/2121 VRB15G25KT 5SM TSRA BKN020CB
     FM212100 12015G20KT P6SM VCTS BKN030CB
     FM220100 12006KT P6SM BKN040=



000
FTUS44 KBRO 211739
TAFMFE
TAF
KMFE 211739Z 2118/2218 10010KT P6SM VCTS BKN035CB
      TEMPO 2118/2120 VRB15G25KT 5SM TSRA BKN020CB
     FM212000 11010G16KT P6SM VCTS BKN035CB
     FM220000 12010KT P6SM BKN040=



000
FTUS44 KBRO 211739
TAFHRL
TAF
KHRL 211739Z 2118/2218 12006KT P6SM VCTS SCT020 BKN035CB
      TEMPO 2118/2121 VRB15G25KT 5SM TSRA BKN020CB
     FM220100 11010KT P6SM BKN040=



000
FTUS44 KBRO 211526 AAA
TAFMFE
TAF AMD
KMFE 211526Z 2115/2212 12006KT P6SM VCTS BKN035CB
      TEMPO 2116/2119 VRB15G25KT TSRA BKN020CB
     FM211900 11010G16KT P6SM VCTS BKN035CB
     FM220000 12010KT P6SM VCSH BKN040=



000
FTUS44 KBRO 211526 AAA
TAFMFE
TAF AMD
KMFE 211526Z 2115/2212 12006KT P6SM VCTS BKN035CB
      TEMPO 2116/2119 VRB15G25KT TSRA BKN020CB
     FM211900 11010G16KT P6SM VCTS BKN035CB
     FM220000 12010KT P6SM VCSH BKN040=



000
FTUS44 KBRO 211126
TAFHRL
TAF
KHRL 211126Z 2112/2212 12006KT P6SM SCT012 OVC025
      TEMPO 2112/2114 5SM BR SCT012
     FM211500 14012KT P6SM BKN035
     FM211900 13011G17KT P6SM VCTS BKN035CB
     FM220000 11010KT P6SM VCSH BKN040=



000
FTUS44 KBRO 211126
TAFMFE
TAF
KMFE 211126Z 2112/2212 12006KT P6SM BKN012 BKN018
      TEMPO 2112/2114 OVC009
     FM211500 14012KT P6SM VCSH BKN030
     FM211900 11010G16KT P6SM VCTS BKN035CB
     FM220000 12010KT P6SM VCSH BKN040=



000
FTUS44 KBRO 211126
TAFBRO
TAF
KBRO 211126Z 2112/2212 10006KT P6SM BKN025
      TEMPO 2112/2114 5SM BR OVC015
     FM211500 14012KT P6SM BKN035
     FM212100 12015G20KT P6SM VCTS BKN030CB
     FM220100 12006KT P6SM BKN040=



000
FTUS44 KBRO 210900 AAB
TAFHRL
TAF AMD
KHRL 210900Z 2109/2206 12006KT 6SM HZ FEW016 SCT025
      TEMPO 2109/2111 SCT015
     FM211500 14012KT P6SM VCSH BKN035
     FM211900 13011G17KT P6SM VCTS BKN035CB
     FM220000 11010KT P6SM BKN040=



000
FTUS44 KBRO 210900 AAB
TAFHRL
TAF AMD
KHRL 210900Z 2109/2206 12006KT 6SM HZ FEW016 SCT025
      TEMPO 2109/2111 SCT015
     FM211500 14012KT P6SM VCSH BKN035
     FM211900 13011G17KT P6SM VCTS BKN035CB
     FM220000 11010KT P6SM BKN040=



000
FTUS44 KBRO 210611 AAA
TAFHRL
TAF AMD
KHRL 210611Z 2106/2206 12006KT P6SM BKN016
      TEMPO 2107/2111 BKN008
     FM211500 14012KT P6SM VCSH BKN035
     FM211900 13011G17KT P6SM VCTS BKN035CB
     FM220000 11010KT P6SM BKN040=



000
FTUS44 KBRO 210611 AAA
TAFHRL
TAF AMD
KHRL 210611Z 2106/2206 12006KT P6SM BKN016
      TEMPO 2107/2111 BKN008
     FM211500 14012KT P6SM VCSH BKN035
     FM211900 13011G17KT P6SM VCTS BKN035CB
     FM220000 11010KT P6SM BKN040=



000
FTUS44 KBRO 210528
TAFBRO
TAF
KBRO 210528Z 2106/2206 12010KT P6SM BKN030
      TEMPO 2107/2111 BKN015
     FM211500 14012KT P6SM VCSH BKN035
     FM212100 12015KT P6SM VCTS BKN030CB
     FM220100 12006KT P6SM BKN040=



000
FTUS44 KBRO 210528
TAFHRL
TAF
KHRL 210528Z 2106/2206 12006KT P6SM BKN040
      TEMPO 2107/2111 BKN015
     FM211500 14012KT P6SM VCSH BKN035
     FM211900 13011G17KT P6SM VCTS BKN035CB
     FM220000 11010KT P6SM BKN040=



000
FTUS44 KBRO 210528
TAFMFE
TAF
KMFE 210528Z 2106/2206 12006KT P6SM BKN013 BKN018
      TEMPO 2107/2111 BKN015
     FM211500 14012KT P6SM VCSH BKN035
     FM211900 11010G16KT P6SM VCTS BKN035CB
     FM220000 12010KT P6SM BKN040=



000
FTUS44 KBRO 210528
TAFBRO
TAF
KBRO 210528Z 2106/2206 12010KT P6SM BKN030
      TEMPO 2107/2111 BKN015
     FM211500 14012KT P6SM VCSH BKN035
     FM212100 12015KT P6SM VCTS BKN030CB
     FM220100 12006KT P6SM BKN040=



000
FTUS44 KBRO 210528
TAFHRL
TAF
KHRL 210528Z 2106/2206 12006KT P6SM BKN040
      TEMPO 2107/2111 BKN015
     FM211500 14012KT P6SM VCSH BKN035
     FM211900 13011G17KT P6SM VCTS BKN035CB
     FM220000 11010KT P6SM BKN040=



000
FTUS44 KBRO 210528
TAFMFE
TAF
KMFE 210528Z 2106/2206 12006KT P6SM BKN013 BKN018
      TEMPO 2107/2111 BKN015
     FM211500 14012KT P6SM VCSH BKN035
     FM211900 11010G16KT P6SM VCTS BKN035CB
     FM220000 12010KT P6SM BKN040=



000
FTUS44 KBRO 202328
TAFMFE
TAF
KMFE 202328Z 2100/2124 14012G18KT P6SM SCT030 BKN045
     FM210300 12011KT P6SM BKN025
      TEMPO 2107/2111 BKN015
     FM211500 14012KT P6SM BKN035=



000
FTUS44 KBRO 202328
TAFHRL
TAF
KHRL 202328Z 2100/2124 16014G21KT P6SM SCT025
     FM210200 12011KT P6SM BKN025
      TEMPO 2107/2111 BKN015
     FM211500 14012KT P6SM BKN035=



000
FTUS44 KBRO 202328
TAFMFE
TAF
KMFE 202328Z 2100/2124 14012G18KT P6SM SCT030 BKN045
     FM210300 12011KT P6SM BKN025
      TEMPO 2107/2111 BKN015
     FM211500 14012KT P6SM BKN035=



000
FTUS44 KBRO 202328
TAFBRO
TAF
KBRO 202328Z 2100/2124 13014G21KT P6SM SCT025
     FM210200 12011KT P6SM BKN025
      TEMPO 2107/2111 BKN015
     FM211500 14012KT P6SM BKN035=



000
FTUS44 KBRO 202328
TAFBRO
TAF
KBRO 202328Z 2100/2124 13014G21KT P6SM SCT025
     FM210200 12011KT P6SM BKN025
      TEMPO 2107/2111 BKN015
     FM211500 14012KT P6SM BKN035=



000
FTUS44 KBRO 202328
TAFHRL
TAF
KHRL 202328Z 2100/2124 16014G21KT P6SM SCT025
     FM210200 12011KT P6SM BKN025
      TEMPO 2107/2111 BKN015
     FM211500 14012KT P6SM BKN035=



000
FTUS44 KBRO 202019 AAA
TAFMFE
TAF AMD
KMFE 202019Z 2020/2118 15014G22KT P6SM SCT030 BKN045
     FM210300 12011KT P6SM BKN025
      TEMPO 2107/2111 BKN015
     FM211500 14012KT P6SM BKN035=



000
FTUS44 KBRO 202018 AAA
TAFBRO
TAF AMD
KBRO 202018Z 2020/2118 13017KT P6SM BKN035 BKN045
     FM210300 12011KT P6SM BKN025
      TEMPO 2107/2111 BKN015
     FM211500 14012KT P6SM BKN035=



000
FTUS44 KBRO 201747 CCA
TAFMFE
TAF COR
KMFE 201747Z 2018/2118 16013G22KT P6SM SCT030 BKN035 BKN070
      TEMPO 2018/2021 BKN030
     FM210300 12011KT P6SM BKN025
      TEMPO 2107/2111 BKN015
     FM211500 14012KT P6SM BKN035=



000
FTUS44 KBRO 201747 CCA
TAFMFE
TAF COR
KMFE 201747Z 2018/2118 16013G22KT P6SM SCT030 BKN035 BKN070
      TEMPO 2018/2021 BKN030
     FM210300 12011KT P6SM BKN025
      TEMPO 2107/2111 BKN015
     FM211500 14012KT P6SM BKN035=



000
FTUS44 KBRO 201720
TAFMFE
TAF
KMFE 201720Z 2018/2118 14012G20KT P6SM BKN030 OVC050
      TEMPO 2018/2021 BKN026
     FM210300 12011KT P6SM BKN025
      TEMPO 2107/2111 BKN015
     FM211500 14012KT P6SM BKN035=



000
FTUS44 KBRO 201720
TAFBRO
TAF
KBRO 201720Z 2018/2118 16020G24KT P6SM SCT030 BKN040
     FM210300 12011KT P6SM BKN025
      TEMPO 2107/2111 BKN015
     FM211500 14012KT P6SM BKN035=



000
FTUS44 KBRO 201720
TAFHRL
TAF
KHRL 201720Z 2018/2118 16015KT P6SM SCT028 BKN040
     FM210300 12011KT P6SM BKN025
      TEMPO 2107/2111 BKN015
     FM211500 14012KT P6SM BKN035=



000
FTUS44 KBRO 201720
TAFHRL
TAF
KHRL 201720Z 2018/2118 16015KT P6SM SCT028 BKN040
     FM210300 12011KT P6SM BKN025
      TEMPO 2107/2111 BKN015
     FM211500 14012KT P6SM BKN035=



000
FTUS44 KBRO 201720
TAFBRO
TAF
KBRO 201720Z 2018/2118 16020G24KT P6SM SCT030 BKN040
     FM210300 12011KT P6SM BKN025
      TEMPO 2107/2111 BKN015
     FM211500 14012KT P6SM BKN035=



000
FTUS44 KBRO 201720
TAFMFE
TAF
KMFE 201720Z 2018/2118 14012G20KT P6SM BKN030 OVC050
      TEMPO 2018/2021 BKN026
     FM210300 12011KT P6SM BKN025
      TEMPO 2107/2111 BKN015
     FM211500 14012KT P6SM BKN035=



000
FTUS44 KBRO 201455 AAC
TAFMFE
TAF AMD
KMFE 201455Z 2015/2112 16012KT P6SM FEW018 SCT025 SCT040
     FM201700 15016G24KT P6SM SCT040
     FM210400 12009KT 6SM HZ BKN018 OVC025=



000
FTUS44 KBRO 201455 AAC
TAFMFE
TAF AMD
KMFE 201455Z 2015/2112 16012KT P6SM FEW018 SCT025 SCT040
     FM201700 15016G24KT P6SM SCT040
     FM210400 12009KT 6SM HZ BKN018 OVC025=



000
FTUS44 KBRO 201430 AAB
TAFHRL
TAF AMD
KHRL 201430Z 2015/2112 16014G20KT P6SM FEW021 SCT030 OVC050
     FM201700 15018G24KT P6SM SCT035
     FM210300 13008KT 6SM HZ BKN018 OVC025=



000
FTUS44 KBRO 201430 AAB
TAFHRL
TAF AMD
KHRL 201430Z 2015/2112 16014G20KT P6SM FEW021 SCT030 OVC050
     FM201700 15018G24KT P6SM SCT035
     FM210300 13008KT 6SM HZ BKN018 OVC025=



000
FTUS44 KBRO 201407 AAB
TAFMFE
TAF AMD
KMFE 201407Z 2014/2112 15011KT 6SM HZ SCT014 OVC022
     FM201500 15015G20KT P6SM SCT025
     FM201700 15016G24KT P6SM SCT040
     FM210400 12009KT 6SM HZ BKN018 OVC025=



000
FTUS44 KBRO 201407 AAB
TAFMFE
TAF AMD
KMFE 201407Z 2014/2112 15011KT 6SM HZ SCT014 OVC022
     FM201500 15015G20KT P6SM SCT025
     FM201700 15016G24KT P6SM SCT040
     FM210400 12009KT 6SM HZ BKN018 OVC025=



000
FTUS44 KBRO 201406 AAC
TAFBRO
TAF AMD
KBRO 201406Z 2014/2112 14018G24KT P6SM FEW019 BKN030
     FM201700 15018G25KT P6SM SCT035
     FM210100 13010G18KT P6SM BKN030
     FM210400 14008KT 6SM HZ BKN018 OVC025=



000
FTUS44 KBRO 201239 AAB
TAFBRO
TAF AMD
KBRO 201239Z 2013/2112 15013KT 6SM BR SCT015 OVC026
      TEMPO 2013/2015 BKN015
     FM201700 15018G25KT P6SM SCT035
     FM210100 13010G18KT P6SM BKN030
     FM210400 14008KT 6SM HZ BKN018 OVC025=



000
FTUS44 KBRO 201239 AAB
TAFBRO
TAF AMD
KBRO 201239Z 2013/2112 15013KT 6SM BR SCT015 OVC026
      TEMPO 2013/2015 BKN015
     FM201700 15018G25KT P6SM SCT035
     FM210100 13010G18KT P6SM BKN030
     FM210400 14008KT 6SM HZ BKN018 OVC025=



000
FTUS44 KBRO 201238 AAA
TAFHRL
TAF AMD
KHRL 201238Z 2013/2112 15009KT P6SM SCT019 BKN025 BKN030
      TEMPO 2013/2015 BKN019
     FM201500 15014G20KT P6SM SCT015 BKN025
     FM201700 15018G24KT P6SM SCT035
     FM210300 13008KT 6SM HZ BKN018 OVC025=



000
FTUS44 KBRO 201238 AAA
TAFMFE
TAF AMD
KMFE 201238Z 2013/2112 14007KT 4SM HZ BKN010 BKN015 OVC024
     FM201500 15015G20KT P6SM SCT025
     FM201700 15016G24KT P6SM SCT040
     FM210400 12009KT 6SM HZ BKN018 OVC025=



000
FTUS44 KBRO 201238 AAA
TAFHRL
TAF AMD
KHRL 201238Z 2013/2112 15009KT P6SM SCT019 BKN025 BKN030
      TEMPO 2013/2015 BKN019
     FM201500 15014G20KT P6SM SCT015 BKN025
     FM201700 15018G24KT P6SM SCT035
     FM210300 13008KT 6SM HZ BKN018 OVC025=



000
FTUS44 KBRO 201238 AAA
TAFMFE
TAF AMD
KMFE 201238Z 2013/2112 14007KT 4SM HZ BKN010 BKN015 OVC024
     FM201500 15015G20KT P6SM SCT025
     FM201700 15016G24KT P6SM SCT040
     FM210400 12009KT 6SM HZ BKN018 OVC025=



    US Dept of Commerce
    National Oceanic and Atmospheric Administration
    National Weather Service
    1325 East West Highway
    Silver Spring, MD 20910
    Page Author: NWS Internet Services Team
Disclaimer
Information Quality
Credits
Glossary
Privacy Policy
Freedom of Information Act (FOIA)
About Us
Career Opportunities